createdAt,value
2023-04-26T00:02:22.860Z,93.15
2023-04-26T00:04:58.186Z,92.92
2023-04-26T00:08:05.856Z,92.83
2023-04-26T00:10:47.410Z,92.67
2023-04-26T00:13:14.630Z,93.00
2023-04-26T00:15:42.077Z,93.19
2023-04-26T00:18:11.651Z,93.00
2023-04-26T00:20:39.665Z,92.60
2023-04-26T00:23:10.247Z,92.57
2023-04-26T00:25:46.969Z,92.21
2023-04-26T00:28:19.061Z,92.37
2023-04-26T00:30:49.184Z,92.12
2023-04-26T00:33:16.191Z,92.35
2023-04-26T00:35:43.555Z,92.34
2023-04-26T00:38:10.956Z,92.83
2023-04-26T00:40:38.410Z,92.79
2023-04-26T00:43:06.981Z,93.18
2023-04-26T00:45:34.998Z,93.12
2023-04-26T00:48:03.662Z,92.82
2023-04-26T00:50:31.521Z,92.82
2023-04-26T00:52:59.976Z,92.88
2023-04-26T00:55:27.647Z,93.32
2023-04-26T00:57:55.513Z,92.93
2023-04-26T01:00:23.007Z,93.19
2023-04-26T01:02:50.304Z,93.24
2023-04-26T01:05:21.846Z,93.39
2023-04-26T01:07:49.236Z,93.22
2023-04-26T01:10:18.385Z,93.67
2023-04-26T01:12:45.870Z,93.43
2023-04-26T01:15:13.539Z,93.49
2023-04-26T01:17:40.633Z,93.37
2023-04-26T01:20:10.654Z,93.43
2023-04-26T01:22:37.757Z,93.31
2023-04-26T01:25:12.309Z,93.64
2023-04-26T01:27:39.991Z,93.26
2023-04-26T01:30:08.577Z,93.55
2023-04-26T01:32:35.906Z,93.43
2023-04-26T01:35:03.646Z,93.36
2023-04-26T01:37:31.764Z,93.46
2023-04-26T01:39:59.942Z,93.37
2023-04-26T01:42:28.331Z,93.61
2023-04-26T01:45:00.466Z,93.95
2023-04-26T01:47:28.066Z,93.82
2023-04-26T01:49:55.677Z,93.85
2023-04-26T01:52:23.311Z,94.21
2023-04-26T01:54:51.460Z,94.24
2023-04-26T01:57:18.427Z,94.35
2023-04-26T01:59:45.866Z,93.89
2023-04-26T02:02:16.921Z,94.05
2023-04-26T02:04:44.636Z,93.69
2023-04-26T02:07:11.717Z,94.35
2023-04-26T02:09:39.154Z,94.03
2023-04-26T02:12:06.301Z,94.23
2023-04-26T02:14:35.282Z,93.80
2023-04-26T02:17:02.345Z,93.77
2023-04-26T02:19:29.873Z,94.08
2023-04-26T02:21:58.525Z,93.92
2023-04-26T02:24:26.356Z,93.95
2023-04-26T02:26:54.925Z,93.93
2023-04-26T02:29:32.634Z,94.25
2023-04-26T02:32:07.906Z,94.29
2023-04-26T02:34:36.036Z,94.37
2023-04-26T02:37:03.056Z,94.20
2023-04-26T02:39:32.399Z,94.16
2023-04-26T02:41:59.700Z,94.62
2023-04-26T02:44:30.990Z,94.46
2023-04-26T02:46:58.402Z,94.48
2023-04-26T02:49:26.070Z,94.85
2023-04-26T02:51:53.103Z,94.65
2023-04-26T02:54:20.516Z,94.63
2023-04-26T02:56:47.617Z,95.04
2023-04-26T02:59:15.686Z,94.92
2023-04-26T03:01:43.310Z,95.16
2023-04-26T03:04:11.703Z,95.15
2023-04-26T03:06:38.892Z,94.91
2023-04-26T03:09:06.277Z,95.44
2023-04-26T03:11:33.427Z,95.23
2023-04-26T03:14:00.765Z,95.17
2023-04-26T03:16:28.499Z,95.13
2023-04-26T03:18:56.041Z,95.29
2023-04-26T03:21:23.132Z,95.00
2023-04-26T03:23:53.913Z,95.00
2023-04-26T03:26:23.018Z,94.94
2023-04-26T03:28:52.977Z,94.78
2023-04-26T03:31:22.064Z,94.48
2023-04-26T03:33:50.255Z,94.45
2023-04-26T03:36:17.487Z,94.05
2023-04-26T03:38:44.858Z,94.51
2023-04-26T03:41:13.065Z,94.19
2023-04-26T03:43:41.311Z,94.16
2023-04-26T03:46:08.349Z,93.96
2023-04-26T03:48:36.343Z,93.87
2023-04-26T03:51:04.261Z,93.85
2023-04-26T03:53:33.901Z,93.76
2023-04-26T04:00:00.134Z,93.13
2023-04-26T04:05:35.059Z,93.02
2023-04-26T04:08:04.941Z,93.01
2023-04-26T04:10:32.027Z,93.12
2023-04-26T04:12:59.470Z,92.88
2023-04-26T04:15:27.148Z,92.64
2023-04-26T04:17:55.168Z,92.55
2023-04-26T04:20:23.815Z,92.37
2023-04-26T04:22:52.975Z,92.72
2023-04-26T04:25:31.143Z,92.50
2023-04-26T04:28:05.861Z,92.34
2023-04-26T04:30:33.495Z,92.15
2023-04-26T04:33:06.886Z,91.90
2023-04-26T04:35:37.295Z,92.04
2023-04-26T04:38:14.140Z,92.34
2023-04-26T04:40:41.946Z,92.31
2023-04-26T04:43:11.042Z,91.83
2023-04-26T04:45:39.065Z,91.96
2023-04-26T04:48:10.599Z,92.03
2023-04-26T04:50:46.370Z,91.45
2023-04-26T04:53:18.588Z,91.69
2023-04-26T04:55:49.152Z,91.09
2023-04-26T04:58:20.386Z,91.16
2023-04-26T05:00:50.821Z,91.30
2023-04-26T05:03:18.980Z,91.76
2023-04-26T05:05:46.174Z,91.67
2023-04-26T05:08:14.927Z,91.57
2023-04-26T05:10:42.140Z,91.96
2023-04-26T05:13:09.492Z,91.99
2023-04-26T05:15:37.578Z,91.59
2023-04-26T05:18:07.614Z,91.05
2023-04-26T05:20:36.146Z,91.13
2023-04-26T05:23:12.229Z,90.97
2023-04-26T05:25:44.204Z,90.71
2023-04-26T05:28:16.132Z,90.82
2023-04-26T05:30:43.601Z,90.41
2023-04-26T05:33:11.154Z,90.37
2023-04-26T05:35:50.681Z,90.91
2023-04-26T05:38:19.148Z,90.69
2023-04-26T05:40:48.387Z,90.37
2023-04-26T05:43:16.069Z,90.29
2023-04-26T05:45:55.645Z,90.21
2023-04-26T05:48:27.818Z,90.45
2023-04-26T05:50:55.668Z,90.16
2023-04-26T05:53:23.054Z,90.20
2023-04-26T05:55:50.218Z,90.19
2023-04-26T05:58:17.795Z,90.32
2023-04-26T06:00:46.276Z,90.05
2023-04-26T06:03:13.935Z,89.71
2023-04-26T06:05:42.597Z,89.72
2023-04-26T06:08:10.122Z,89.56
2023-04-26T06:10:40.793Z,89.63
2023-04-26T06:13:14.077Z,89.26
2023-04-26T06:15:42.089Z,89.61
2023-04-26T06:18:10.293Z,89.13
2023-04-26T06:20:43.467Z,88.78
2023-04-26T06:23:14.794Z,89.15
2023-04-26T06:25:46.635Z,89.19
2023-04-26T06:28:14.738Z,89.17
2023-04-26T06:30:45.984Z,88.28
2023-04-26T06:33:14.887Z,87.76
2023-04-26T06:35:43.279Z,86.95
2023-04-26T06:38:13.242Z,86.89
2023-04-26T06:40:40.442Z,85.33
2023-04-26T06:43:09.827Z,83.63
2023-04-26T06:45:37.121Z,83.12
2023-04-26T06:48:05.429Z,83.45
2023-04-26T06:50:32.621Z,81.16
2023-04-26T06:53:00.046Z,81.01
2023-04-26T06:55:27.186Z,80.59
2023-04-26T06:57:54.545Z,79.30
2023-04-26T07:00:22.222Z,80.08
2023-04-26T07:02:49.793Z,79.25
2023-04-26T07:05:17.578Z,78.99
2023-04-26T07:07:45.237Z,79.58
2023-04-26T07:10:18.392Z,75.79
2023-04-26T07:12:46.060Z,74.48
2023-04-26T07:15:13.044Z,74.36
2023-04-26T07:17:40.442Z,74.63
2023-04-26T07:20:08.376Z,74.76
2023-04-26T07:22:36.023Z,74.18
2023-04-26T07:25:03.186Z,74.66
2023-04-26T07:27:31.554Z,75.50
2023-04-26T07:29:58.503Z,73.80
2023-04-26T07:32:26.267Z,72.93
2023-04-26T07:34:53.720Z,72.65
2023-04-26T07:37:21.289Z,73.24
2023-04-26T07:39:48.446Z,72.68
2023-04-26T07:42:16.616Z,71.83
2023-04-26T07:44:43.687Z,71.77
2023-04-26T07:47:14.528Z,71.10
2023-04-26T07:49:41.854Z,70.71
2023-04-26T07:52:09.759Z,70.92
2023-04-26T07:54:37.230Z,70.24
2023-04-26T07:57:04.711Z,70.55
2023-04-26T07:59:32.676Z,70.27
2023-04-26T08:02:00.170Z,70.42
2023-04-26T08:04:35.273Z,68.50
2023-04-26T08:07:03.123Z,66.69
2023-04-26T08:09:30.946Z,67.71
2023-04-26T08:11:58.740Z,67.35
2023-04-26T08:14:26.045Z,67.31
2023-04-26T08:16:53.753Z,65.76
2023-04-26T08:19:21.595Z,65.93
2023-04-26T08:21:49.089Z,65.36
2023-04-26T08:24:16.139Z,64.14
2023-04-26T08:26:43.578Z,62.30
2023-04-26T08:29:10.763Z,63.54
2023-04-26T08:31:38.482Z,64.29
2023-04-26T08:34:06.090Z,65.08
2023-04-26T08:36:37.152Z,64.70
2023-04-26T08:39:05.043Z,65.31
2023-04-26T08:41:37.452Z,64.88
2023-04-26T08:44:05.763Z,64.89
2023-04-26T08:46:59.437Z,63.87
2023-04-26T08:49:47.783Z,63.88
2023-04-26T08:52:17.336Z,62.76
2023-04-26T08:54:46.970Z,63.84
2023-04-26T08:57:15.624Z,61.01
2023-04-26T08:59:44.366Z,61.22
2023-04-26T09:02:17.426Z,59.33
2023-04-26T09:04:48.534Z,58.70
2023-04-26T09:07:35.895Z,56.13
2023-04-26T09:10:04.794Z,54.58
2023-04-26T09:12:32.633Z,55.63
2023-04-26T09:15:01.416Z,54.87
2023-04-26T09:17:34.492Z,56.45
2023-04-26T09:20:07.945Z,57.45
2023-04-26T09:22:37.503Z,57.77
2023-04-26T09:25:07.270Z,57.63
2023-04-26T09:27:38.127Z,59.22
2023-04-26T09:30:11.721Z,59.59
2023-04-26T09:32:53.839Z,60.98
2023-04-26T09:35:35.341Z,62.01
2023-04-26T09:38:11.046Z,62.78
2023-04-26T09:40:43.547Z,63.96
2023-04-26T09:43:22.038Z,64.76
2023-04-26T09:45:57.010Z,64.94
2023-04-26T09:48:30.566Z,65.47
2023-04-26T09:51:03.685Z,65.00
2023-04-26T09:53:32.395Z,65.44
2023-04-26T09:56:19.889Z,65.33
2023-04-26T09:58:47.253Z,65.18
2023-04-26T10:01:19.191Z,63.80
2023-04-26T10:03:47.497Z,59.63
2023-04-26T10:06:15.653Z,52.20
2023-04-26T10:08:43.888Z,51.74
2023-04-26T10:11:11.831Z,51.06
2023-04-26T10:13:42.264Z,49.21
2023-04-26T10:16:12.690Z,47.41
2023-04-26T10:18:40.686Z,43.63
2023-04-26T10:21:11.385Z,44.13
2023-04-26T10:23:39.881Z,46.69
2023-04-26T10:26:07.749Z,49.48
2023-04-26T10:28:41.834Z,48.09
2023-04-26T10:31:09.040Z,49.17
2023-04-26T10:33:36.556Z,49.44
2023-04-26T10:36:26.848Z,50.62
2023-04-26T10:39:23.403Z,52.71
2023-04-26T10:41:50.654Z,53.01
2023-04-26T10:44:57.659Z,53.60
2023-04-26T10:47:28.734Z,53.96
2023-04-26T10:50:05.821Z,54.23
2023-04-26T10:52:34.245Z,54.81
2023-04-26T10:57:56.043Z,55.17
2023-04-26T11:00:33.190Z,55.53
2023-04-26T11:03:04.127Z,56.53
2023-04-26T11:05:38.728Z,53.42
2023-04-26T11:08:19.955Z,48.49
2023-04-26T11:11:11.951Z,45.84
2023-04-26T11:13:40.776Z,43.00
2023-04-26T11:16:10.537Z,44.01
2023-04-26T11:18:40.498Z,43.75
2023-04-26T11:21:08.946Z,44.91
2023-04-26T11:23:36.771Z,45.30
2023-04-26T11:26:06.860Z,45.43
2023-04-26T11:28:36.144Z,46.70
2023-04-26T11:31:04.741Z,46.43
2023-04-26T11:33:34.442Z,46.88
2023-04-26T11:36:02.343Z,47.17
2023-04-26T11:38:30.193Z,47.35
2023-04-26T11:41:02.595Z,47.31
2023-04-26T11:43:40.089Z,47.06
2023-04-26T11:46:10.017Z,46.81
2023-04-26T11:51:34.912Z,45.40
2023-04-26T11:54:02.383Z,45.08
2023-04-26T11:56:29.483Z,46.34
2023-04-26T11:58:58.510Z,46.92
2023-04-26T12:01:27.951Z,46.82
2023-04-26T12:04:00.062Z,46.61
2023-04-26T12:06:44.157Z,47.18
2023-04-26T12:09:12.122Z,48.61
2023-04-26T12:11:40.374Z,47.74
2023-04-26T12:14:11.653Z,46.60
2023-04-26T12:16:38.909Z,46.01
2023-04-26T12:19:07.355Z,47.06
2023-04-26T12:21:42.666Z,48.62
2023-04-26T12:24:36.969Z,50.04
2023-04-26T12:27:07.186Z,50.49
2023-04-26T12:29:35.084Z,51.31
2023-04-26T12:32:02.742Z,53.46
2023-04-26T12:34:40.057Z,55.14
2023-04-26T12:37:15.820Z,54.55
2023-04-26T12:42:57.174Z,56.41
2023-04-26T12:45:28.147Z,57.35
2023-04-26T12:47:56.483Z,56.83
2023-04-26T12:50:23.814Z,57.49
2023-04-26T12:52:51.369Z,57.99
2023-04-26T12:55:20.457Z,58.13
2023-04-26T12:57:48.128Z,56.85
2023-04-26T13:00:21.875Z,57.08
2023-04-26T13:02:49.625Z,58.08
2023-04-26T13:05:18.902Z,57.30
2023-04-26T13:07:46.407Z,58.19
2023-04-26T13:10:13.900Z,58.53
2023-04-26T13:12:41.577Z,58.75
2023-04-26T13:15:09.404Z,59.53
2023-04-26T13:17:38.105Z,59.76
2023-04-26T13:20:07.145Z,59.61
2023-04-26T13:22:34.961Z,58.84
2023-04-26T13:25:27.551Z,58.88
2023-04-26T13:27:55.624Z,59.49
2023-04-26T13:30:22.616Z,59.13
2023-04-26T13:32:50.275Z,59.28
2023-04-26T13:35:17.376Z,59.59
2023-04-26T13:37:44.863Z,60.33
2023-04-26T13:40:12.445Z,60.43
2023-04-26T13:42:40.123Z,61.26
2023-04-26T13:45:09.567Z,61.46
2023-04-26T13:47:37.530Z,60.83
2023-04-26T13:50:04.934Z,61.08
2023-04-26T13:55:15.625Z,61.09
2023-04-26T13:57:43.178Z,61.53
2023-04-26T14:02:54.721Z,61.13
2023-04-26T14:05:22.163Z,60.93
2023-04-26T14:07:49.787Z,60.50
2023-04-26T14:10:16.933Z,60.94
2023-04-26T14:12:44.523Z,61.40
2023-04-26T14:15:12.777Z,61.33
2023-04-26T14:17:40.121Z,61.40
2023-04-26T14:20:10.518Z,62.12
2023-04-26T14:22:38.171Z,62.30
2023-04-26T14:25:06.029Z,62.20
2023-04-26T14:27:34.810Z,61.89
2023-04-26T14:30:01.903Z,62.24
2023-04-26T14:32:29.304Z,62.65
2023-04-26T14:34:56.414Z,64.14
2023-04-26T14:37:24.186Z,64.43
2023-04-26T14:39:53.985Z,64.65
2023-04-26T14:42:24.560Z,65.00
2023-04-26T14:44:52.779Z,64.85
2023-04-26T14:47:22.693Z,65.46
2023-04-26T14:49:49.764Z,65.74
2023-04-26T14:52:17.320Z,65.58
2023-04-26T14:54:44.538Z,64.94
2023-04-26T14:57:12.079Z,64.71
2023-04-26T14:59:39.131Z,64.73
2023-04-26T15:02:07.396Z,65.11
2023-04-26T15:04:36.807Z,65.54
2023-04-26T15:07:04.550Z,65.39
2023-04-26T15:09:32.541Z,66.18
2023-04-26T15:12:00.017Z,66.14
2023-04-26T15:14:29.035Z,66.62
2023-04-26T15:16:56.782Z,66.69
2023-04-26T15:19:23.946Z,66.66
2023-04-26T15:21:51.424Z,67.33
2023-04-26T15:24:19.489Z,67.48
2023-04-26T15:26:51.083Z,67.53
2023-04-26T15:29:20.131Z,67.27
2023-04-26T15:31:47.843Z,67.46
2023-04-26T15:34:15.172Z,67.35
2023-04-26T15:36:43.085Z,67.55
2023-04-26T15:39:20.156Z,67.99
2023-04-26T15:41:49.910Z,68.79
2023-04-26T15:44:17.788Z,68.76
2023-04-26T15:46:46.195Z,68.48
2023-04-26T15:49:13.432Z,68.03
2023-04-26T15:51:40.929Z,68.26
2023-04-26T15:54:08.195Z,68.17
2023-04-26T15:56:38.107Z,68.69
2023-04-26T15:59:05.155Z,68.33
2023-04-26T16:01:32.863Z,68.41
2023-04-26T16:04:00.152Z,68.42
2023-04-26T16:09:39.398Z,69.57
2023-04-26T16:12:21.506Z,69.47
2023-04-26T16:14:51.412Z,70.24
2023-04-26T16:17:18.515Z,70.51
2023-04-26T16:19:46.182Z,70.90
2023-04-26T16:22:13.230Z,71.00
2023-04-26T16:24:40.707Z,71.15
2023-04-26T16:27:21.497Z,70.77
2023-04-26T16:29:51.958Z,71.09
2023-04-26T16:32:47.715Z,71.52
2023-04-26T16:35:15.878Z,71.53
2023-04-26T16:37:44.854Z,70.83
2023-04-26T16:40:15.482Z,70.76
2023-04-26T16:42:43.661Z,70.66
2023-04-26T16:45:15.463Z,70.81
2023-04-26T16:47:43.562Z,71.14
2023-04-26T16:50:13.900Z,71.28
2023-04-26T16:52:41.031Z,71.51
2023-04-26T16:55:10.553Z,71.86
2023-04-26T16:57:45.471Z,71.67
2023-04-26T17:00:13.813Z,71.64
2023-04-26T17:02:42.175Z,72.06
2023-04-26T17:05:11.833Z,71.90
2023-04-26T17:07:40.764Z,72.32
2023-04-26T17:10:08.754Z,72.22
2023-04-26T17:12:37.206Z,72.60
2023-04-26T17:15:05.618Z,72.98
2023-04-26T17:17:36.938Z,73.46
2023-04-26T17:20:11.322Z,73.28
2023-04-26T17:22:39.145Z,73.21
2023-04-26T17:25:07.338Z,73.57
2023-04-26T17:27:39.717Z,73.39
2023-04-26T17:30:09.290Z,73.59
2023-04-26T17:32:38.724Z,74.02
2023-04-26T17:35:09.562Z,74.22
2023-04-26T17:37:36.893Z,74.82
2023-04-26T17:40:06.928Z,74.84
2023-04-26T17:42:34.488Z,74.91
2023-04-26T17:45:02.081Z,75.09
2023-04-26T17:47:29.260Z,75.02
2023-04-26T17:49:56.930Z,74.84
2023-04-26T17:52:24.064Z,74.86
2023-04-26T17:54:52.471Z,74.88
2023-04-26T17:57:23.957Z,74.82
2023-04-26T17:59:52.179Z,75.25
2023-04-26T18:02:19.982Z,75.36
2023-04-26T18:04:47.855Z,75.04
2023-04-26T18:07:16.982Z,74.85
2023-04-26T18:09:44.674Z,75.20
2023-04-26T18:12:11.733Z,74.74
2023-04-26T18:14:45.052Z,74.76
2023-04-26T18:17:13.367Z,73.42
2023-04-26T18:19:42.409Z,73.18
2023-04-26T18:22:09.942Z,72.36
2023-04-26T18:24:37.761Z,72.38
2023-04-26T18:27:04.877Z,71.50
2023-04-26T18:32:16.008Z,70.98
2023-04-26T18:34:44.289Z,71.17
2023-04-26T18:37:16.312Z,70.81
2023-04-26T18:39:45.446Z,70.44
2023-04-26T18:42:16.356Z,71.25
2023-04-26T18:44:52.454Z,71.23
2023-04-26T18:47:21.373Z,71.50
2023-04-26T18:49:49.343Z,71.74
2023-04-26T18:52:16.567Z,72.33
2023-04-26T18:54:44.204Z,72.73
2023-04-26T18:57:11.679Z,73.33
2023-04-26T18:59:40.257Z,74.08
2023-04-26T19:02:07.942Z,74.15
2023-04-26T19:04:35.955Z,74.37
2023-04-26T19:07:04.681Z,74.27
2023-04-26T19:09:53.681Z,74.43
2023-04-26T19:12:25.492Z,74.48
2023-04-26T19:14:54.365Z,74.23
2023-04-26T19:17:23.006Z,74.26
2023-04-26T19:19:54.876Z,73.97
2023-04-26T19:22:23.220Z,73.74
2023-04-26T19:24:55.853Z,73.31
2023-04-26T19:27:24.749Z,73.29
2023-04-26T19:29:58.050Z,73.06
2023-04-26T19:32:34.711Z,72.34
2023-04-26T19:35:06.218Z,72.12
2023-04-26T19:37:33.468Z,72.04
2023-04-26T19:40:01.067Z,71.94
2023-04-26T19:42:28.484Z,71.64
2023-04-26T19:44:56.130Z,71.20
2023-04-26T19:47:23.578Z,71.07
2023-04-26T19:49:53.096Z,70.09
2023-04-26T19:52:20.283Z,69.78
2023-04-26T19:54:47.850Z,69.59
2023-04-26T19:57:16.861Z,69.78
2023-04-26T19:59:44.320Z,69.19
2023-04-26T20:02:11.761Z,69.35
2023-04-26T20:04:45.498Z,69.27
2023-04-26T20:07:12.710Z,69.31
2023-04-26T20:09:40.168Z,68.89
2023-04-26T20:12:07.485Z,68.97
2023-04-26T20:14:35.259Z,69.17
2023-04-26T20:17:04.044Z,69.30
2023-04-26T20:19:31.530Z,69.13
2023-04-26T20:21:58.648Z,69.58
2023-04-26T20:24:28.274Z,69.44
2023-04-26T20:26:59.696Z,69.47
2023-04-26T20:29:27.055Z,69.63
2023-04-26T20:34:50.211Z,69.13
2023-04-26T20:37:17.660Z,69.32
2023-04-26T20:39:45.371Z,69.22
2023-04-26T20:42:12.474Z,69.35
2023-04-26T20:44:43.568Z,69.39
2023-04-26T20:47:10.705Z,69.57
2023-04-26T20:49:38.192Z,70.05
2023-04-26T20:52:05.430Z,70.21
2023-04-26T20:54:33.005Z,70.03
2023-04-26T20:57:03.366Z,70.22
2023-04-26T20:59:32.101Z,70.28
2023-04-26T21:01:59.927Z,70.26
2023-04-26T21:04:27.866Z,70.70
2023-04-26T21:06:55.252Z,70.51
2023-04-26T21:09:23.992Z,70.59
2023-04-26T21:11:51.374Z,70.33
2023-04-26T21:14:18.914Z,70.44
2023-04-26T21:16:46.593Z,70.31
2023-04-26T21:19:14.296Z,70.34
2023-04-26T21:21:41.994Z,70.50
2023-04-26T21:24:10.224Z,70.45
2023-04-26T21:26:37.310Z,71.59
2023-04-26T21:29:10.256Z,70.92
2023-04-26T21:31:37.490Z,71.13
2023-04-26T21:34:04.895Z,70.94
2023-04-26T21:36:32.574Z,70.71
2023-04-26T21:38:59.939Z,70.97
2023-04-26T21:44:12.500Z,71.32
2023-04-26T21:46:39.983Z,71.29
2023-04-26T21:49:07.795Z,71.38
2023-04-26T21:51:35.141Z,71.20
2023-04-26T21:54:06.266Z,71.40
2023-04-26T21:56:35.992Z,71.30
2023-04-26T21:59:03.430Z,71.16
2023-04-26T22:01:31.210Z,71.38
2023-04-26T22:03:59.392Z,71.38
2023-04-26T22:06:27.379Z,71.45
2023-04-26T22:08:55.365Z,71.53
2023-04-26T22:11:22.470Z,71.55
2023-04-26T22:13:50.044Z,71.26
2023-04-26T22:16:17.159Z,71.11
2023-04-26T22:18:45.220Z,71.26
2023-04-26T22:21:13.402Z,71.60
2023-04-26T22:23:41.055Z,71.29
2023-04-26T22:26:08.280Z,71.63
2023-04-26T22:28:35.826Z,71.87
2023-04-26T22:31:02.893Z,71.72
2023-04-26T22:33:30.572Z,71.74
2023-04-26T22:35:58.184Z,71.67
2023-04-26T22:38:26.005Z,71.55
2023-04-26T22:40:53.126Z,71.75
2023-04-26T22:43:22.776Z,71.90
2023-04-26T22:45:50.164Z,72.57
2023-04-26T22:48:18.375Z,72.15
2023-04-26T22:50:48.660Z,72.29
2023-04-26T22:53:16.867Z,72.36
2023-04-26T22:55:44.112Z,72.43
2023-04-26T22:58:11.609Z,71.79
2023-04-26T23:00:38.892Z,71.80
2023-04-26T23:03:06.472Z,71.99
2023-04-26T23:05:34.594Z,72.09
2023-04-26T23:08:02.984Z,72.42
2023-04-26T23:10:30.152Z,72.28
2023-04-26T23:13:01.487Z,72.22
2023-04-26T23:15:28.611Z,72.00
2023-04-26T23:17:57.025Z,72.07
2023-04-26T23:20:24.245Z,71.98
2023-04-26T23:22:52.404Z,71.76
2023-04-26T23:25:20.768Z,72.07
2023-04-26T23:27:48.182Z,72.01
2023-04-26T23:30:16.084Z,71.96
2023-04-26T23:32:43.546Z,71.71
2023-04-26T23:35:10.664Z,71.94
2023-04-26T23:37:38.896Z,72.04
2023-04-26T23:40:07.472Z,71.93
2023-04-26T23:42:34.843Z,71.40
2023-04-26T23:45:03.099Z,71.80
2023-04-26T23:47:31.009Z,72.12
2023-04-26T23:49:59.421Z,71.79
2023-04-26T23:52:27.730Z,72.10
2023-04-26T23:54:54.851Z,71.95
2023-04-26T23:57:23.010Z,71.76
2023-04-26T23:59:52.754Z,72.17
